Time;durP1;ratioP1;P1;durP2;ratioP2;P2;SDS_P1;SDS_P2;PMS_P1;PMS_P2;Temp;Humidity;BMP_temperature;BMP_pressure;BME280_temperature;BME280_humidity;BME280_pressure;Samples;Min_cycle;Max_cycle;Signal;HPM_P1;HPM_P2
2022/08/25 00:00:07;;;;;;;4.50;2.83;;;24.00;99.90;;;;;;5011507;28;20549;-84
2022/08/25 00:02:34;;;;;;;5.37;2.70;;;23.90;99.90;;;;;;5001711;28;20476;-85
2022/08/25 00:05:01;;;;;;;4.10;2.70;;;23.90;99.90;;;;;;5004349;28;20455;-84
2022/08/25 00:07:30;;;;;;;6.70;3.30;;;23.80;99.90;;;;;;5001180;28;20446;-84
2022/08/25 00:09:56;;;;;;;4.20;2.70;;;23.80;99.90;;;;;;5008601;28;20484;-84
2022/08/25 00:12:24;;;;;;;4.30;2.53;;;23.70;99.90;;;;;;5020704;28;20540;-85
2022/08/25 00:14:51;;;;;;;3.00;2.33;;;23.70;99.90;;;;;;5012812;28;20482;-85
2022/08/25 00:17:19;;;;;;;5.13;3.00;;;23.60;99.90;;;;;;5001036;28;20459;-83
2022/08/25 00:19:46;;;;;;;4.70;3.23;;;23.60;99.90;;;;;;5020556;28;20446;-85
2022/08/25 00:22:13;;;;;;;4.53;2.90;;;23.50;99.90;;;;;;5020911;28;20552;-84
2022/08/25 00:24:41;;;;;;;4.40;2.60;;;23.50;99.90;;;;;;5008789;28;20478;-84
2022/08/25 00:27:11;;;;;;;7.13;3.20;;;23.50;99.90;;;;;;5020988;28;20518;-85
2022/08/25 00:29:38;;;;;;;10.83;3.47;;;23.40;99.90;;;;;;5020198;28;20453;-84
2022/08/25 00:32:06;;;;;;;4.53;3.03;;;23.40;99.90;;;;;;5020378;28;20547;-84
2022/08/25 00:34:35;;;;;;;4.40;2.77;;;23.40;99.90;;;;;;5009388;28;20500;-84
2022/08/25 00:37:05;;;;;;;4.70;3.07;;;23.40;99.90;;;;;;5020236;28;21014;-84
2022/08/25 00:39:32;;;;;;;5.40;2.70;;;23.30;99.90;;;;;;5004555;28;20459;-84
2022/08/25 00:42:00;;;;;;;4.37;2.60;;;23.30;99.90;;;;;;4999276;28;20483;-85
2022/08/25 00:44:32;;;;;;;5.10;3.13;;;23.30;99.90;;;;;;5004988;28;20540;-84
2022/08/25 00:47:01;;;;;;;4.83;2.53;;;23.20;99.90;;;;;;5017524;28;20472;-85
2022/08/25 00:49:32;;;;;;;4.07;2.67;;;23.20;99.90;;;;;;5018422;28;20545;-85
2022/08/25 00:52:01;;;;;;;5.30;2.77;;;23.20;99.90;;;;;;5010156;28;20864;-83
2022/08/25 00:54:32;;;;;;;5.00;3.10;;;23.20;99.90;;;;;;4998526;28;20486;-83
2022/08/25 00:57:01;;;;;;;6.20;2.90;;;23.10;99.90;;;;;;5006648;28;20495;-85
2022/08/25 00:59:28;;;;;;;5.13;3.23;;;23.10;99.90;;;;;;5018248;28;20813;-84
2022/08/25 01:01:56;;;;;;;5.60;2.80;;;23.00;99.90;;;;;;5010725;28;20566;-83
2022/08/25 01:04:23;;;;;;;4.73;2.93;;;23.00;99.90;;;;;;5004291;28;20522;-85
2022/08/25 01:06:50;;;;;;;3.90;2.70;;;22.90;99.90;;;;;;5017784;28;20460;-83
2022/08/25 01:09:18;;;;;;;6.00;2.77;;;22.90;99.90;;;;;;5017478;28;20442;-84
2022/08/25 01:11:46;;;;;;;8.40;3.53;;;22.90;99.90;;;;;;5017370;28;20491;-84
2022/08/25 01:14:18;;;;;;;5.43;2.77;;;22.80;99.90;;;;;;5015963;28;20528;-84
2022/08/25 01:16:46;;;;;;;4.70;3.20;;;22.80;99.90;;;;;;4998409;28;20692;-83
2022/08/25 01:19:14;;;;;;;4.63;2.90;;;22.70;99.90;;;;;;4999130;28;20486;-83
2022/08/25 01:21:44;;;;;;;6.30;2.97;;;22.70;99.90;;;;;;5005100;28;20478;-85
2022/08/25 01:24:18;;;;;;;5.30;3.00;;;22.70;99.90;;;;;;5002572;28;20514;-85
2022/08/25 01:26:45;;;;;;;4.10;2.77;;;22.60;99.90;;;;;;5001843;28;20525;-84
2022/08/25 01:29:20;;;;;;;4.57;3.10;;;22.60;99.90;;;;;;5004508;28;20454;-84
2022/08/25 01:31:48;;;;;;;4.43;3.00;;;22.60;99.90;;;;;;5000098;28;21082;-84
2022/08/25 01:34:16;;;;;;;6.13;3.27;;;22.60;99.90;;;;;;5008305;28;20530;-84
2022/08/25 01:36:45;;;;;;;4.20;2.67;;;22.50;99.90;;;;;;5020339;28;20496;-84
2022/08/25 01:39:13;;;;;;;4.43;2.93;;;22.50;99.90;;;;;;5019173;28;20529;-84
2022/08/25 01:41:58;;;;;;;4.27;2.57;;;22.50;99.90;;;;;;5019431;28;20565;-84
2022/08/25 01:44:25;;;;;;;5.90;3.40;;;22.40;99.90;;;;;;5018249;28;20536;-83
2022/08/25 01:46:53;;;;;;;4.83;3.23;;;22.40;99.90;;;;;;5018863;28;20866;-84
2022/08/25 01:49:20;;;;;;;4.57;3.17;;;22.40;99.90;;;;;;5010583;28;20486;-84
2022/08/25 01:51:53;;;;;;;6.30;2.93;;;22.30;99.90;;;;;;4999455;28;20565;-85
2022/08/25 01:54:20;;;;;;;4.60;2.97;;;22.30;99.90;;;;;;5007150;28;20833;-84
2022/08/25 01:56:47;;;;;;;7.57;3.40;;;22.30;99.90;;;;;;5019449;28;20449;-84
2022/08/25 01:59:15;;;;;;;5.03;3.57;;;22.20;99.90;;;;;;5017225;28;20509;-84
2022/08/25 02:01:42;;;;;;;4.67;3.63;;;22.20;99.90;;;;;;4999243;28;20542;-84
2022/08/25 02:04:09;;;;;;;5.63;3.20;;;22.10;99.90;;;;;;5005192;28;20453;-83
2022/08/25 02:06:36;;;;;;;5.00;2.90;;;22.10;99.90;;;;;;5001253;28;20450;-84
2022/08/25 02:09:08;;;;;;;4.60;3.40;;;22.10;99.90;;;;;;5002282;28;20515;-85
2022/08/25 02:11:36;;;;;;;4.13;2.90;;;22.10;99.90;;;;;;4998712;28;21086;-85
2022/08/25 02:14:04;;;;;;;4.07;2.97;;;22.10;99.90;;;;;;5004191;28;21825;-85
2022/08/25 02:16:33;;;;;;;4.87;3.30;;;22.10;99.90;;;;;;5018249;28;20464;-83
2022/08/25 02:19:00;;;;;;;10.50;2.90;;;22.00;99.90;;;;;;4998825;28;20485;-85
2022/08/25 02:21:28;;;;;;;6.30;3.30;;;22.00;99.90;;;;;;4996789;28;21041;-84
2022/08/25 02:23:55;;;;;;;6.30;3.47;;;21.90;99.90;;;;;;5008253;28;20891;-83
2022/08/25 02:26:24;;;;;;;4.37;3.30;;;21.90;99.90;;;;;;5008164;28;20457;-85
2022/08/25 02:28:52;;;;;;;5.13;2.97;;;21.90;99.90;;;;;;5016805;28;20542;-85
2022/08/25 02:31:22;;;;;;;6.50;3.07;;;21.80;99.90;;;;;;5017142;28;20505;-86
2022/08/25 02:33:49;;;;;;;4.70;2.77;;;21.80;99.90;;;;;;5013952;28;20538;-86
2022/08/25 02:36:16;;;;;;;5.17;3.37;;;21.70;99.90;;;;;;5017382;28;20473;-84
2022/08/25 02:38:43;;;;;;;5.87;3.30;;;21.70;99.90;;;;;;5016124;28;20529;-84
2022/08/25 02:41:12;;;;;;;5.10;3.33;;;21.70;99.90;;;;;;4997019;28;20486;-85
2022/08/25 02:43:42;;;;;;;6.23;3.37;;;21.70;99.90;;;;;;4996458;28;20838;-85
2022/08/25 02:46:10;;;;;;;5.40;3.37;;;21.70;99.90;;;;;;5016725;28;20446;-84
2022/08/25 02:48:37;;;;;;;3.60;2.50;;;21.70;99.90;;;;;;5006143;28;20509;-83
2022/08/25 02:51:05;;;;;;;5.17;2.87;;;21.60;99.90;;;;;;4998726;28;20463;-84
2022/08/25 02:53:33;;;;;;;4.13;3.40;;;21.50;99.90;;;;;;5005959;28;20549;-84
2022/08/25 02:56:00;;;;;;;4.80;3.00;;;21.50;99.90;;;;;;4996800;28;20545;-84
2022/08/25 02:58:27;;;;;;;4.33;3.37;;;21.50;99.90;;;;;;5005988;28;21067;-84
2022/08/25 03:00:56;;;;;;;6.30;3.40;;;21.50;99.90;;;;;;5018217;28;20856;-84
2022/08/25 03:03:23;;;;;;;5.60;3.47;;;21.50;99.90;;;;;;5010498;28;20458;-85
2022/08/25 03:05:50;;;;;;;3.33;2.80;;;21.50;99.90;;;;;;5008503;28;20458;-86
2022/08/25 03:08:17;;;;;;;4.83;3.33;;;21.40;99.90;;;;;;5013397;28;20879;-84
2022/08/25 03:10:44;;;;;;;8.63;3.43;;;21.40;99.90;;;;;;5019630;28;20481;-85
2022/08/25 03:13:11;;;;;;;7.00;4.73;;;21.40;99.90;;;;;;5011811;28;21010;-86
2022/08/25 03:15:38;;;;;;;8.17;4.03;;;21.30;99.90;;;;;;5019521;28;20457;-87
2022/08/25 03:18:06;;;;;;;7.07;3.90;;;21.30;99.90;;;;;;5020168;28;20460;-85
2022/08/25 03:20:34;;;;;;;8.00;3.80;;;21.30;99.90;;;;;;5022494;28;20464;-86
2022/08/25 03:23:01;;;;;;;9.83;4.33;;;21.30;99.90;;;;;;5022342;28;20454;-85
2022/08/25 03:28:13;;;;;;;7.30;4.03;;;21.20;99.90;;;;;;5013776;28;20460;-85
2022/08/25 03:30:40;;;;;;;7.07;3.80;;;21.20;99.90;;;;;;5022181;28;20477;-84
2022/08/25 03:33:09;;;;;;;6.93;4.43;;;21.20;99.90;;;;;;5021335;28;20552;-85
2022/08/25 03:35:36;;;;;;;5.83;4.00;;;21.20;99.90;;;;;;5006736;28;20514;-85
2022/08/25 03:38:04;;;;;;;8.17;4.87;;;21.10;99.90;;;;;;5012529;28;20513;-86
2022/08/25 03:40:31;;;;;;;7.20;4.10;;;21.00;99.90;;;;;;5022138;28;20481;-84
2022/08/25 03:42:58;;;;;;;6.90;4.50;;;21.00;99.90;;;;;;5011524;28;20467;-84
2022/08/25 03:45:25;;;;;;;7.97;4.60;;;21.00;99.90;;;;;;5014476;28;21027;-83
2022/08/25 03:47:53;;;;;;;6.80;4.20;;;21.00;99.90;;;;;;5006925;28;20486;-84
2022/08/25 03:50:22;;;;;;;6.70;4.87;;;20.90;99.90;;;;;;4999260;28;20497;-85
2022/08/25 03:52:52;;;;;;;8.70;5.27;;;20.90;99.90;;;;;;5008751;28;21012;-85
2022/08/25 03:55:20;;;;;;;7.63;5.00;;;20.90;99.90;;;;;;5004180;28;20470;-85
2022/08/25 03:57:46;;;;;;;8.80;5.50;;;20.80;99.90;;;;;;5007276;28;20486;-86
2022/08/25 04:00:14;;;;;;;7.63;4.80;;;20.80;99.90;;;;;;5018724;28;20520;-83
2022/08/25 04:02:41;;;;;;;6.20;4.87;;;20.80;99.90;;;;;;5008667;28;20500;-84
2022/08/25 04:05:09;;;;;;;6.73;5.10;;;20.80;99.90;;;;;;5007974;28;20566;-85
2022/08/25 04:07:38;;;;;;;6.60;4.90;;;20.80;99.90;;;;;;5010517;28;20451;-84
2022/08/25 04:10:05;;;;;;;7.50;4.83;;;20.70;99.90;;;;;;4997216;28;20538;-85
2022/08/25 04:12:32;;;;;;;6.33;4.40;;;20.70;99.90;;;;;;5004743;28;20485;-85
2022/08/25 04:15:00;;;;;;;7.07;4.50;;;20.70;99.90;;;;;;5005871;28;20550;-86
2022/08/25 04:17:27;;;;;;;8.73;4.40;;;20.60;99.90;;;;;;4998747;28;20451;-85
2022/08/25 04:19:54;;;;;;;7.83;3.93;;;20.60;99.90;;;;;;4999070;28;20489;-85
2022/08/25 04:22:21;;;;;;;6.40;4.40;;;20.60;99.90;;;;;;5010189;28;20531;-84
2022/08/25 04:24:49;;;;;;;6.00;4.20;;;20.60;99.90;;;;;;5017052;28;20540;-85
2022/08/25 04:27:16;;;;;;;5.50;4.60;;;20.60;99.90;;;;;;5017275;28;20481;-84
2022/08/25 04:29:43;;;;;;;5.97;5.10;;;20.50;99.90;;;;;;5018078;28;20473;-86
2022/08/25 04:32:10;;;;;;;5.97;3.80;;;20.50;99.90;;;;;;4997617;28;20514;-85
2022/08/25 04:34:37;;;;;;;6.60;3.60;;;20.50;99.90;;;;;;4996817;28;20513;-86
2022/08/25 04:37:06;;;;;;;6.70;4.47;;;20.50;99.90;;;;;;4997539;28;20485;-85
2022/08/25 04:39:33;;;;;;;5.83;4.37;;;20.50;99.90;;;;;;4996777;28;20849;-86
2022/08/25 04:42:02;;;;;;;6.10;3.70;;;20.50;99.90;;;;;;5013751;28;20556;-84
2022/08/25 04:44:30;;;;;;;5.77;3.63;;;20.50;99.90;;;;;;5009093;28;20959;-85
2022/08/25 04:46:57;;;;;;;9.80;3.73;;;20.50;99.90;;;;;;5012243;28;20985;-84
2022/08/25 04:49:24;;;;;;;6.47;3.70;;;20.50;99.90;;;;;;5019672;28;20504;-87
2022/08/25 04:51:51;;;;;;;6.77;4.20;;;20.40;99.90;;;;;;5009499;28;20506;-86
2022/08/25 04:54:20;;;;;;;6.00;3.97;;;20.50;99.90;;;;;;5005588;28;20484;-85
2022/08/25 04:56:47;;;;;;;7.67;3.83;;;20.50;99.90;;;;;;5020838;28;20474;-86
2022/08/25 04:59:17;;;;;;;6.37;3.67;;;20.50;99.90;;;;;;5022334;28;20484;-86
2022/08/25 05:01:46;;;;;;;6.20;3.33;;;20.50;99.90;;;;;;5020756;28;20484;-86
2022/08/25 05:04:16;;;;;;;5.03;3.80;;;20.50;99.90;;;;;;5017662;28;20459;-86
2022/08/25 05:06:45;;;;;;;4.87;3.80;;;20.60;99.90;;;;;;5014669;28;20504;-85
2022/08/25 05:09:12;;;;;;;5.93;3.70;;;20.60;99.90;;;;;;5020264;28;20480;-86
2022/08/25 05:11:39;;;;;;;6.43;4.27;;;20.60;99.90;;;;;;5020687;28;20902;-85
2022/08/25 05:14:10;;;;;;;5.20;3.37;;;20.60;99.90;;;;;;5018525;28;20577;-85
2022/08/25 05:16:39;;;;;;;6.00;4.00;;;20.60;99.90;;;;;;5010082;28;20892;-86
2022/08/25 05:19:06;;;;;;;6.30;4.20;;;20.60;99.90;;;;;;5015896;28;20544;-86
2022/08/25 05:21:33;;;;;;;7.03;3.90;;;20.70;99.90;;;;;;5004372;28;20503;-86
2022/08/25 05:24:01;;;;;;;5.67;4.07;;;20.70;99.90;;;;;;4995389;28;20868;-84
2022/08/25 05:26:30;;;;;;;8.07;4.10;;;20.70;99.90;;;;;;5005814;28;20541;-84
2022/08/25 05:28:58;;;;;;;11.87;4.07;;;20.80;99.90;;;;;;4997574;28;20455;-87
2022/08/25 05:31:26;;;;;;;7.97;4.80;;;20.80;99.90;;;;;;5013685;28;20474;-86
2022/08/25 05:33:55;;;;;;;5.87;3.90;;;20.80;99.90;;;;;;5013808;28;20580;-86
2022/08/25 05:36:23;;;;;;;9.50;4.67;;;20.80;99.90;;;;;;5014243;28;20454;-85
2022/08/25 05:38:51;;;;;;;5.53;4.13;;;20.90;99.90;;;;;;5013405;28;20496;-86
2022/08/25 05:41:24;;;;;;;7.33;3.90;;;20.90;99.90;;;;;;4993834;28;20485;-85
2022/08/25 05:43:51;;;;;;;8.03;4.33;;;21.00;99.90;;;;;;4994412;28;20546;-84
2022/08/25 05:46:21;;;;;;;8.53;4.23;;;20.90;99.90;;;;;;5014471;28;20453;-85
2022/08/25 05:48:51;;;;;;;9.27;4.00;;;21.00;99.90;;;;;;5018019;28;20485;-84
2022/08/25 05:51:22;;;;;;;6.77;4.03;;;21.00;99.90;;;;;;5022347;28;20465;-85
2022/08/25 05:53:52;;;;;;;6.23;3.93;;;21.10;99.90;;;;;;5024374;28;20479;-80
2022/08/25 05:56:20;;;;;;;7.40;4.97;;;21.20;99.90;;;;;;5018778;28;20462;-81
2022/08/25 05:58:47;;;;;;;6.30;4.37;;;21.20;99.90;;;;;;5006476;28;21003;-83
2022/08/25 06:04:07;;;;;;;6.70;4.10;;;21.30;99.90;;;;;;5008131;28;21004;-82
2022/08/25 06:06:36;;;;;;;7.00;4.67;;;21.40;99.90;;;;;;5009407;28;20467;-81
2022/08/25 06:09:07;;;;;;;7.47;4.87;;;21.40;99.90;;;;;;5009771;28;20454;-81
2022/08/25 06:11:35;;;;;;;12.03;4.67;;;21.50;99.90;;;;;;5015804;28;20508;-81
2022/08/25 06:14:02;;;;;;;9.00;4.03;;;21.60;99.90;;;;;;5004262;28;20520;-81
2022/08/25 06:16:29;;;;;;;11.17;3.97;;;21.60;99.90;;;;;;5016371;28;20453;-80
2022/08/25 06:18:55;;;;;;;22.00;5.10;;;21.70;99.90;;;;;;5014881;28;20504;-81
2022/08/25 06:21:22;;;;;;;14.57;5.07;;;21.80;99.90;;;;;;5014249;28;20553;-80
2022/08/25 06:23:51;;;;;;;7.60;4.40;;;21.80;99.90;;;;;;5016244;28;20529;-81
2022/08/25 06:26:17;;;;;;;7.50;4.13;;;21.90;99.90;;;;;;5016864;28;20462;-80
2022/08/25 06:28:44;;;;;;;7.97;4.53;;;21.90;99.90;;;;;;5007600;28;20461;-81
2022/08/25 06:31:12;;;;;;;9.73;4.73;;;22.00;99.90;;;;;;5014952;28;20509;-81
2022/08/25 06:33:39;;;;;;;14.30;4.93;;;22.00;99.90;;;;;;5020131;28;20545;-81
2022/08/25 06:36:07;;;;;;;11.63;5.10;;;22.10;99.90;;;;;;5017491;28;20920;-81
2022/08/25 06:38:34;;;;;;;8.80;4.20;;;22.10;99.90;;;;;;5051107;23;20458;-78
2022/08/25 06:41:04;;;;;;;7.70;4.03;;;22.10;99.90;;;;;;5052414;28;20554;-77
2022/08/25 06:43:32;;;;;;;9.43;4.60;;;22.20;99.90;;;;;;5053876;28;20482;-77
2022/08/25 06:46:07;;;;;;;7.80;4.07;;;22.20;99.90;;;;;;5054554;28;20447;-78
2022/08/25 06:48:34;;;;;;;9.80;4.37;;;22.30;99.90;;;;;;5054334;28;20559;-78
2022/08/25 06:51:05;;;;;;;13.20;4.50;;;22.40;99.90;;;;;;5053943;28;20918;-77
2022/08/25 06:53:32;;;;;;;6.00;4.80;;;22.50;99.90;;;;;;5053331;28;20490;-78
2022/08/25 06:55:59;;;;;;;11.70;5.03;;;22.50;99.90;;;;;;5054732;28;20534;-78
2022/08/25 06:58:28;;;;;;;10.07;4.27;;;22.60;99.90;;;;;;5054292;28;20460;-78
2022/08/25 07:00:55;;;;;;;6.47;3.63;;;22.60;99.90;;;;;;5052171;28;20483;-78
2022/08/25 07:03:22;;;;;;;7.73;4.13;;;22.70;99.90;;;;;;5053232;28;20448;-78
2022/08/25 07:05:53;;;;;;;4.93;3.70;;;22.70;99.90;;;;;;5054424;28;20487;-77
2022/08/25 07:08:20;;;;;;;5.40;4.23;;;22.80;99.90;;;;;;5059328;28;20453;-78
2022/08/25 07:10:47;;;;;;;12.57;4.73;;;22.90;99.90;;;;;;5059472;28;20555;-79
2022/08/25 07:13:15;;;;;;;6.17;3.90;;;23.00;99.90;;;;;;5054261;28;20570;-79
2022/08/25 07:15:43;;;;;;;8.30;5.43;;;23.00;99.90;;;;;;5062479;28;20474;-79
2022/08/25 07:18:11;;;;;;;7.20;3.90;;;23.20;99.90;;;;;;5058587;28;20455;-78
2022/08/25 07:20:39;;;;;;;6.83;4.20;;;23.20;99.90;;;;;;5054587;28;20558;-78
2022/08/25 07:23:06;;;;;;;8.93;4.40;;;23.30;99.90;;;;;;5053826;28;20452;-78
2022/08/25 07:25:33;;;;;;;8.30;4.80;;;23.30;99.90;;;;;;5054498;28;20952;-78
2022/08/25 07:28:01;;;;;;;5.47;3.60;;;23.40;99.90;;;;;;5054786;28;20539;-77
2022/08/25 07:30:28;;;;;;;9.83;4.80;;;23.50;99.90;;;;;;5053895;28;21007;-80
2022/08/25 07:32:56;;;;;;;5.70;3.67;;;23.60;99.90;;;;;;5053576;28;20496;-79
2022/08/25 07:35:24;;;;;;;5.20;4.30;;;23.70;99.90;;;;;;5054741;28;20796;-78
2022/08/25 07:37:55;;;;;;;7.27;4.37;;;23.70;99.90;;;;;;5054101;28;20555;-78
2022/08/25 07:40:24;;;;;;;9.60;4.30;;;23.80;99.90;;;;;;5053915;28;20483;-76
2022/08/25 07:42:53;;;;;;;5.80;3.87;;;23.90;99.90;;;;;;5053730;28;20542;-78
2022/08/25 07:45:28;;;;;;;12.90;5.50;;;24.00;99.90;;;;;;5053545;28;20554;-78
2022/08/25 07:47:56;;;;;;;10.07;5.00;;;24.10;99.90;;;;;;5054212;28;20478;-78
2022/08/25 07:50:23;;;;;;;7.00;4.60;;;24.10;99.90;;;;;;5053313;28;21058;-78
2022/08/25 07:52:51;;;;;;;7.40;4.10;;;24.20;99.90;;;;;;5053168;28;20825;-77
2022/08/25 07:55:18;;;;;;;5.60;4.07;;;24.30;99.90;;;;;;5053294;28;20825;-78
2022/08/25 07:57:46;;;;;;;6.67;4.70;;;24.40;99.90;;;;;;5044939;28;20456;-79
2022/08/25 08:00:16;;;;;;;6.77;4.63;;;24.50;99.90;;;;;;5050815;28;20483;-77
2022/08/25 08:02:43;;;;;;;8.97;4.47;;;24.50;99.90;;;;;;5050159;28;20448;-79
2022/08/25 08:05:13;;;;;;;8.70;4.03;;;24.60;99.90;;;;;;5052291;28;20535;-79
2022/08/25 08:07:41;;;;;;;9.83;4.70;;;24.70;99.90;;;;;;5053368;28;20544;-78
2022/08/25 08:10:10;;;;;;;8.30;4.97;;;24.80;99.90;;;;;;5053150;28;20584;-79
2022/08/25 08:12:38;;;;;;;4.90;4.00;;;24.90;99.90;;;;;;5053379;28;20459;-79
2022/08/25 08:15:06;;;;;;;9.03;4.63;;;25.00;99.90;;;;;;5053240;28;20571;-77
2022/08/25 08:17:33;;;;;;;7.57;4.23;;;25.10;99.90;;;;;;5050068;28;20556;-79
2022/08/25 08:20:03;;;;;;;11.17;4.93;;;25.20;99.90;;;;;;5050454;28;20916;-78
2022/08/25 08:22:31;;;;;;;7.20;4.47;;;25.30;99.90;;;;;;5052731;28;20514;-77
2022/08/25 08:24:58;;;;;;;8.90;5.60;;;25.40;99.90;;;;;;5052807;28;20456;-79
2022/08/25 08:27:25;;;;;;;7.10;4.23;;;25.50;99.90;;;;;;5052696;28;20901;-78
2022/08/25 08:29:52;;;;;;;6.53;4.50;;;25.50;99.90;;;;;;5052900;28;21074;-77
2022/08/25 08:32:20;;;;;;;11.30;5.50;;;25.60;99.90;;;;;;5052618;28;20471;-77
2022/08/25 08:34:47;;;;;;;6.83;4.57;;;25.80;99.90;;;;;;5052514;28;20572;-77
2022/08/25 08:37:15;;;;;;;8.33;4.30;;;26.00;99.90;;;;;;5052692;28;21138;-77
2022/08/25 08:39:43;;;;;;;5.40;4.17;;;26.20;99.90;;;;;;5052066;28;20574;-77
2022/08/25 08:42:23;;;;;;;11.33;4.47;;;26.30;99.90;;;;;;5053019;28;20887;-77
2022/08/25 08:45:11;;;;;;;7.33;4.80;;;26.50;99.90;;;;;;5051752;28;20547;-78
2022/08/25 08:47:51;;;;;;;7.97;4.20;;;26.70;99.90;;;;;;5052207;28;20459;-77
2022/08/25 08:50:26;;;;;;;6.40;4.50;;;27.00;99.90;;;;;;5052290;28;20476;-76
2022/08/25 08:53:06;;;;;;;7.90;4.33;;;27.20;99.90;;;;;;5051629;28;20527;-77
2022/08/25 08:55:39;;;;;;;8.70;4.60;;;27.40;99.90;;;;;;5052084;28;20497;-78
2022/08/25 08:58:09;;;;;;;9.53;4.30;;;27.70;99.90;;;;;;5052309;28;20447;-78
2022/08/25 09:00:41;;;;;;;7.30;4.10;;;27.80;99.90;;;;;;5052341;28;20500;-77
2022/08/25 09:03:11;;;;;;;7.03;5.20;;;28.00;99.90;;;;;;5049865;28;20517;-77
2022/08/25 09:05:45;;;;;;;6.50;4.37;;;28.10;99.90;;;;;;5052672;28;20835;-76
2022/08/25 09:08:15;;;;;;;7.83;3.93;;;28.30;99.90;;;;;;5052582;28;20535;-76
2022/08/25 09:10:55;;;;;;;9.43;4.37;;;28.40;99.90;;;;;;5054458;28;20849;-77
2022/08/25 09:13:36;;;;;;;5.33;4.23;;;28.50;99.90;;;;;;5036881;28;20560;-79
2022/08/25 09:19:08;;;;;;;4.90;3.80;;;28.70;99.90;;;;;;5038562;28;20456;-78
2022/08/25 09:21:45;;;;;;;8.20;4.57;;;28.80;99.90;;;;;;5042438;28;20444;-78
2022/08/25 09:24:36;;;;;;;6.00;4.40;;;29.00;99.90;;;;;;5044843;28;20458;-80
2022/08/25 09:27:15;;;;;;;8.13;4.73;;;29.20;99.90;;;;;;5042146;28;20444;-80
2022/08/25 09:29:57;;;;;;;5.20;3.80;;;29.50;99.90;;;;;;5041692;28;20565;-77
2022/08/25 09:32:27;;;;;;;10.70;4.43;;;29.50;99.90;;;;;;5040335;28;20486;-76
2022/08/25 09:35:01;;;;;;;10.10;4.73;;;29.80;99.90;;;;;;5042158;28;20480;-78
2022/08/25 09:37:28;;;;;;;11.07;4.50;;;30.00;99.90;;;;;;5042120;28;20519;-77
2022/08/25 09:39:55;;;;;;;11.13;4.40;;;30.20;99.90;;;;;;5039725;28;20849;-81
2022/08/25 09:42:48;;;;;;;7.77;5.30;;;30.40;99.90;;;;;;5041707;28;20509;-77
2022/08/25 09:45:15;;;;;;;6.73;4.67;;;30.60;99.90;;;;;;5042232;28;20953;-78
2022/08/25 09:47:44;;;;;;;13.10;5.07;;;30.80;99.90;;;;;;5044343;28;20539;-79
2022/08/25 09:50:16;;;;;;;9.23;4.37;;;31.00;99.90;;;;;;5045150;28;20464;-80
2022/08/25 09:52:44;;;;;;;10.10;4.63;;;31.20;99.90;;;;;;5044250;28;20519;-78
2022/08/25 09:55:29;;;;;;;7.33;4.70;;;31.20;99.90;;;;;;5043031;28;20960;-78
2022/08/25 09:57:58;;;;;;;6.17;4.27;;;31.40;99.90;;;;;;5046905;28;20456;-81
2022/08/25 10:00:29;;;;;;;8.40;3.83;;;31.70;99.90;;;;;;5046065;28;21009;-79
2022/08/25 10:03:15;;;;;;;6.67;4.30;;;31.80;99.90;;;;;;5047677;28;20460;-80
2022/08/25 10:05:58;;;;;;;5.87;3.83;;;31.90;99.90;;;;;;5047809;28;20972;-79
2022/08/25 10:08:31;;;;;;;5.43;4.30;;;32.10;99.90;;;;;;5057771;28;20455;-78
2022/08/25 10:11:00;;;;;;;6.50;4.70;;;32.10;99.90;;;;;;5051712;28;20994;-82
2022/08/25 10:13:38;;;;;;;6.67;4.90;;;32.40;99.90;;;;;;5058371;28;20456;-79
2022/08/25 10:16:10;;;;;;;7.60;4.80;;;32.50;99.90;;;;;;5052555;28;20539;-82
2022/08/25 10:18:37;;;;;;;6.47;4.63;;;32.70;99.90;;;;;;5056366;28;20531;-79
2022/08/25 10:21:16;;;;;;;5.83;4.10;;;32.60;99.90;;;;;;5058515;28;20456;-77
2022/08/25 10:23:50;;;;;;;7.10;5.23;;;32.80;99.90;;;;;;5052424;28;20467;-83
2022/08/25 10:26:28;;;;;;;5.47;4.10;;;32.60;99.90;;;;;;5053329;28;20459;-83
2022/08/25 10:29:10;;;;;;;5.87;4.10;;;33.00;99.90;;;;;;5056149;28;20463;-80
2022/08/25 10:31:45;;;;;;;5.93;3.87;;;33.10;99.90;;;;;;5058772;28;20508;-81
2022/08/25 10:34:28;;;;;;;18.73;5.10;;;33.00;99.90;;;;;;5058540;28;20563;-82
2022/08/25 10:37:02;;;;;;;5.70;3.30;;;33.30;99.90;;;;;;5045794;28;20464;-77
2022/08/25 10:39:39;;;;;;;6.47;4.17;;;33.20;99.90;;;;;;5037421;28;20979;-81
2022/08/25 10:42:32;;;;;;;4.73;3.77;;;33.50;99.90;;;;;;5053814;28;20944;-79
2022/08/25 10:48:22;;;;;;;5.40;3.97;;;33.60;99.90;;;;;;5055281;28;20990;-79
2022/08/25 10:50:55;;;;;;;4.83;3.80;;;33.60;99.90;;;;;;5059005;28;20991;-78
2022/08/25 10:53:29;;;;;;;5.33;3.33;;;33.90;99.90;;;;;;5059139;28;20563;-79
2022/08/25 10:56:16;;;;;;;7.23;3.17;;;34.00;99.90;;;;;;5060526;28;20494;-78
2022/08/25 10:59:06;;;;;;;7.97;3.00;;;33.80;99.90;;;;;;5063350;28;20444;-81
2022/08/25 11:01:47;;;;;;;5.50;3.33;;;33.80;99.90;;;;;;5063130;28;20456;-78
2022/08/25 11:04:18;;;;;;;7.07;3.90;;;33.90;99.90;;;;;;5060814;28;20454;-83
2022/08/25 11:06:50;;;;;;;5.90;4.27;;;34.10;99.90;;;;;;5061046;28;20479;-81
2022/08/25 11:09:23;;;;;;;6.60;4.53;;;34.20;99.90;;;;;;5061520;28;20460;-80
2022/08/25 11:11:56;;;;;;;9.40;3.80;;;34.20;99.90;;;;;;5063072;28;20440;-81
2022/08/25 11:14:28;;;;;;;5.87;3.80;;;34.30;99.90;;;;;;5062971;28;20582;-82
2022/08/25 11:17:02;;;;;;;5.67;4.97;;;34.40;99.90;;;;;;5061469;28;20476;-81
2022/08/25 11:19:32;;;;;;;6.13;3.70;;;34.40;99.90;;;;;;5060284;28;21028;-82
2022/08/25 11:22:05;;;;;;;4.53;3.10;;;34.80;99.90;;;;;;5060838;28;20452;-78
2022/08/25 11:24:47;;;;;;;4.17;2.90;;;35.10;99.90;;;;;;5059291;28;20472;-80
2022/08/25 11:27:18;;;;;;;5.17;3.40;;;35.40;99.90;;;;;;5061449;28;20439;-80
2022/08/25 11:29:53;;;;;;;4.90;3.70;;;35.30;99.90;;;;;;5061491;28;20499;-79
2022/08/25 11:32:24;;;;;;;4.13;3.60;;;35.30;99.90;;;;;;5061527;28;20486;-80
2022/08/25 11:34:52;;;;;;;7.33;3.40;;;35.60;99.90;;;;;;5059354;28;20582;-80
2022/08/25 11:37:24;;;;;;;5.73;3.97;;;35.70;99.90;;;;;;5060874;28;20486;-81
2022/08/25 11:40:31;;;;;;;11.37;4.23;;;35.50;99.90;;;;;;5060139;28;20482;-80
2022/08/25 11:43:07;;;;;;;12.90;5.00;;;35.70;99.90;;;;;;5052166;28;20463;-82
2022/08/25 11:45:54;;;;;;;5.63;3.60;;;35.40;99.90;;;;;;5059994;28;21077;-81
2022/08/25 11:48:34;;;;;;;4.73;4.10;;;35.80;99.90;;;;;;5060366;28;20456;-79
2022/08/25 11:51:04;;;;;;;10.90;5.73;;;35.70;99.90;;;;;;5059974;28;20443;-78
2022/08/25 11:53:33;;;;;;;8.80;3.90;;;35.80;99.90;;;;;;5058867;28;20440;-80
2022/08/25 11:56:03;;;;;;;7.80;3.90;;;35.90;99.90;;;;;;5058969;28;20570;-77
2022/08/25 11:58:39;;;;;;;11.93;4.13;;;36.00;99.90;;;;;;5055704;28;20467;-80
2022/08/25 12:01:10;;;;;;;9.93;4.73;;;36.00;99.90;;;;;;5056148;28;20547;-83
2022/08/25 12:03:54;;;;;;;11.83;4.37;;;36.20;99.90;;;;;;5058624;28;20844;-81
2022/08/25 12:06:28;;;;;;;6.40;3.90;;;36.20;99.90;;;;;;5059722;28;20459;-77
2022/08/25 12:09:17;;;;;;;4.70;3.80;;;36.40;99.90;;;;;;5059824;28;20550;-80
2022/08/25 12:11:48;;;;;;;6.07;4.10;;;36.70;99.90;;;;;;5055690;28;20535;-80
2022/08/25 12:14:36;;;;;;;7.17;3.70;;;36.50;99.90;;;;;;5055857;28;20452;-80
2022/08/25 12:17:17;;;;;;;5.07;3.90;;;36.90;97.60;;;;;;5036602;28;20449;-78
2022/08/25 12:19:52;;;;;;;4.70;3.50;;;37.00;99.90;;;;;;5058807;28;20476;-78
2022/08/25 12:22:42;;;;;;;5.90;4.07;;;37.10;94.90;;;;;;5057358;28;20464;-78
2022/08/25 12:25:30;;;;;;;5.40;3.60;;;37.30;99.10;;;;;;5057007;28;20460;-78
2022/08/25 12:28:05;;;;;;;6.93;3.93;;;37.50;99.10;;;;;;5043794;28;20495;-82
2022/08/25 12:30:44;;;;;;;4.63;3.50;;;37.40;94.10;;;;;;5047640;28;20568;-81
2022/08/25 12:33:21;;;;;;;3.90;3.33;;;37.40;99.20;;;;;;5045112;28;20517;-80
2022/08/25 12:35:57;;;;;;;4.87;3.70;;;37.30;97.10;;;;;;5044753;28;20523;-82
2022/08/25 12:38:35;;;;;;;5.50;3.97;;;37.40;96.80;;;;;;5058408;28;20455;-80
2022/08/25 12:41:07;;;;;;;8.80;3.87;;;37.40;96.70;;;;;;5056902;28;20462;-81
2022/08/25 12:43:37;;;;;;;5.50;3.33;;;37.50;96.10;;;;;;5058125;28;20490;-83
2022/08/25 12:46:38;;;;;;;5.57;3.70;;;37.40;92.10;;;;;;5056171;28;20448;-79
2022/08/25 12:49:13;;;;;;;10.63;5.00;;;37.60;93.10;;;;;;5047525;28;20544;-81
2022/08/25 12:51:56;;;;;;;6.53;4.53;;;37.90;97.80;;;;;;5077064;27;20529;-81
2022/08/25 12:54:32;;;;;;;5.93;4.20;;;38.30;96.80;;;;;;5075804;27;21006;-81
2022/08/25 12:57:03;;;;;;;5.73;3.90;;;38.10;94.50;;;;;;5077397;27;20465;-81
2022/08/25 12:59:35;;;;;;;4.53;4.03;;;38.10;93.40;;;;;;5090160;27;20558;-80
2022/08/25 13:02:41;;;;;;;8.90;4.23;;;38.00;94.60;;;;;;5071061;27;20483;-79
2022/08/25 13:05:30;;;;;;;5.67;3.80;;;37.80;88.70;;;;;;5081607;28;20472;-78
2022/08/25 13:08:19;;;;;;;6.40;3.97;;;37.80;94.40;;;;;;5069816;27;20451;-82
2022/08/25 13:10:49;;;;;;;5.60;3.93;;;38.20;90.80;;;;;;5058428;27;20543;-81
2022/08/25 13:13:31;;;;;;;8.60;4.60;;;38.20;86.70;;;;;;5057449;28;20456;-80
2022/08/25 13:16:01;;;;;;;5.23;3.60;;;38.10;92.70;;;;;;5067062;28;20516;-81